Time;durP1;ratioP1;P1;durP2;ratioP2;P2;SDS_P1;SDS_P2;PMS_P1;PMS_P2;Temp;Humidity;BMP_temperature;BMP_pressure;BME280_temperature;BME280_humidity;BME280_pressure;Samples;Min_cycle;Max_cycle;Signal;HPM_P1;HPM_P2
2022/05/21 00:02:05;;;;;;;2.45;2.25;;;20.50;99.90;;;;;;5062382;28;20199;-73
2022/05/21 00:04:32;;;;;;;2.65;2.40;;;20.60;99.90;;;;;;5062062;28;20225;-73
2022/05/21 00:06:59;;;;;;;4.05;2.88;;;20.50;99.90;;;;;;5065868;28;20256;-73
2022/05/21 00:09:27;;;;;;;2.60;2.40;;;20.50;99.90;;;;;;5062593;28;20225;-72
2022/05/21 00:11:54;;;;;;;2.10;1.90;;;20.40;99.90;;;;;;5064579;28;20206;-72
2022/05/21 00:14:21;;;;;;;3.97;2.33;;;20.40;99.90;;;;;;5065530;28;20283;-73
2022/05/21 00:16:50;;;;;;;2.47;2.22;;;20.40;99.90;;;;;;5061238;28;20285;-72
2022/05/21 00:19:17;;;;;;;2.35;2.13;;;20.40;99.90;;;;;;5066186;28;20206;-72
2022/05/21 00:21:45;;;;;;;2.30;2.00;;;20.30;99.90;;;;;;5061543;28;20201;-73
2022/05/21 00:24:12;;;;;;;2.50;2.22;;;20.20;99.90;;;;;;5064246;28;20225;-73
2022/05/21 00:26:39;;;;;;;2.85;2.55;;;20.20;99.90;;;;;;5060799;28;20255;-73
2022/05/21 00:29:06;;;;;;;3.17;2.40;;;20.10;99.90;;;;;;5059611;28;20267;-74
2022/05/21 00:31:33;;;;;;;2.33;2.13;;;20.10;99.90;;;;;;5064134;28;20692;-72
2022/05/21 00:34:02;;;;;;;2.53;2.30;;;20.10;99.90;;;;;;5061918;28;20250;-72
2022/05/21 00:36:30;;;;;;;2.55;2.35;;;20.10;99.90;;;;;;5060469;28;20245;-72
2022/05/21 00:38:57;;;;;;;2.13;2.03;;;20.10;99.90;;;;;;5061576;28;20723;-72
2022/05/21 00:41:25;;;;;;;2.63;2.08;;;20.10;99.90;;;;;;5063531;28;20707;-72
2022/05/21 00:43:53;;;;;;;2.90;2.70;;;20.10;99.90;;;;;;5062272;28;20230;-72
2022/05/21 00:46:23;;;;;;;2.53;2.40;;;20.10;99.90;;;;;;5061844;28;20230;-71
2022/05/21 00:48:56;;;;;;;2.53;2.30;;;20.00;99.90;;;;;;5061746;28;20241;-72
2022/05/21 00:51:29;;;;;;;2.35;2.15;;;20.00;99.90;;;;;;5039662;28;20223;-72
2022/05/21 00:53:59;;;;;;;2.28;2.17;;;20.00;99.90;;;;;;5048329;28;20229;-72
2022/05/21 00:56:27;;;;;;;2.22;2.13;;;20.00;99.90;;;;;;5056163;28;20226;-72
2022/05/21 01:01:45;;;;;;;2.67;2.42;;;19.90;99.90;;;;;;5060961;28;20224;-72
2022/05/21 01:04:12;;;;;;;2.33;2.13;;;19.90;99.90;;;;;;5064647;28;20229;-72
2022/05/21 01:06:41;;;;;;;2.50;2.28;;;19.90;99.90;;;;;;5065062;28;20209;-72
2022/05/21 01:09:08;;;;;;;3.10;2.50;;;19.90;99.90;;;;;;5062823;28;20209;-72
2022/05/21 01:11:37;;;;;;;2.28;1.95;;;19.90;99.90;;;;;;5047660;28;20226;-72
2022/05/21 01:14:06;;;;;;;2.05;1.95;;;19.90;99.90;;;;;;5041432;28;20215;-72
2022/05/21 01:16:34;;;;;;;2.45;2.30;;;19.80;99.90;;;;;;5061410;28;20241;-72
2022/05/21 01:19:06;;;;;;;2.20;2.10;;;19.80;99.90;;;;;;5065551;28;20642;-71
2022/05/21 01:21:33;;;;;;;3.33;2.47;;;19.70;99.90;;;;;;5064896;28;20222;-72
2022/05/21 01:24:02;;;;;;;2.22;2.03;;;19.70;99.90;;;;;;5063625;28;20225;-72
2022/05/21 01:26:29;;;;;;;2.38;2.17;;;19.70;99.90;;;;;;5062549;28;20222;-72
2022/05/21 01:28:57;;;;;;;2.78;2.58;;;19.60;99.90;;;;;;5066106;28;20228;-73
2022/05/21 01:31:25;;;;;;;3.17;2.88;;;19.60;99.90;;;;;;5066206;28;20217;-72
2022/05/21 01:33:52;;;;;;;2.55;2.35;;;19.50;99.90;;;;;;5068962;28;20813;-72
2022/05/21 01:36:19;;;;;;;2.80;2.60;;;19.40;99.90;;;;;;5065213;28;20221;-72
2022/05/21 01:38:47;;;;;;;4.35;3.00;;;19.30;99.90;;;;;;5068617;28;20840;-72
2022/05/21 01:41:15;;;;;;;2.85;2.58;;;19.20;99.90;;;;;;5068805;28;20309;-72
2022/05/21 01:46:18;;;;;;;2.30;2.10;;;19.20;99.90;;;;;;5081346;22;20226;-76
2022/05/21 01:48:45;;;;;;;2.00;1.88;;;19.20;99.90;;;;;;5073783;28;20660;-76
2022/05/21 01:51:13;;;;;;;2.60;2.40;;;19.20;99.90;;;;;;5062652;28;20226;-75
2022/05/21 01:53:41;;;;;;;3.22;2.25;;;19.20;99.90;;;;;;5073535;28;20415;-76
2022/05/21 01:56:09;;;;;;;2.20;2.10;;;19.20;99.90;;;;;;5051262;28;20734;-75
2022/05/21 01:58:38;;;;;;;2.45;2.25;;;19.10;99.90;;;;;;5049637;28;20198;-77
2022/05/21 02:01:06;;;;;;;2.45;2.28;;;19.10;99.90;;;;;;5048806;28;20234;-75
2022/05/21 02:03:33;;;;;;;3.53;2.55;;;19.10;99.90;;;;;;5057739;28;20198;-75
2022/05/21 02:06:01;;;;;;;2.00;1.90;;;19.10;99.90;;;;;;5046435;28;20218;-76
2022/05/21 02:08:28;;;;;;;2.63;2.42;;;19.00;99.90;;;;;;5049046;28;20202;-76
2022/05/21 02:10:55;;;;;;;2.33;2.13;;;19.00;99.90;;;;;;5050210;28;20231;-76
2022/05/21 02:13:25;;;;;;;2.63;2.40;;;19.00;99.90;;;;;;5050879;28;20195;-76
2022/05/21 02:15:54;;;;;;;2.40;2.20;;;19.00;99.90;;;;;;5049333;28;20230;-76
2022/05/21 02:18:21;;;;;;;1.98;1.88;;;19.00;99.90;;;;;;5053530;28;20224;-77
2022/05/21 02:20:49;;;;;;;2.20;2.10;;;18.90;99.90;;;;;;5054681;28;20719;-77
2022/05/21 02:23:16;;;;;;;2.42;2.22;;;18.90;99.90;;;;;;5049931;28;20195;-77
2022/05/21 02:25:44;;;;;;;2.58;2.38;;;18.80;99.90;;;;;;5047766;28;20230;-77
2022/05/21 02:28:12;;;;;;;2.28;2.08;;;18.80;99.90;;;;;;5049169;28;20207;-76
2022/05/21 02:30:39;;;;;;;2.08;1.98;;;18.80;99.90;;;;;;5045970;28;20210;-77
2022/05/21 02:33:08;;;;;;;2.60;2.40;;;18.70;99.90;;;;;;5057614;28;20199;-77
2022/05/21 02:35:35;;;;;;;2.03;1.92;;;18.70;99.90;;;;;;5052570;28;20218;-75
2022/05/21 02:40:47;;;;;;;2.35;2.03;;;18.70;99.90;;;;;;5054273;28;20242;-76
2022/05/21 02:43:14;;;;;;;2.17;1.98;;;18.70;99.90;;;;;;5050645;28;20203;-76
2022/05/21 02:45:41;;;;;;;2.55;2.35;;;18.70;99.90;;;;;;5050941;28;20701;-76
2022/05/21 02:48:10;;;;;;;2.40;2.20;;;18.70;99.90;;;;;;5046460;28;20195;-76
2022/05/21 02:50:37;;;;;;;2.17;1.88;;;18.70;99.90;;;;;;5049774;28;20474;-76
2022/05/21 02:53:07;;;;;;;2.50;2.30;;;18.70;99.90;;;;;;5049862;28;20225;-75
2022/05/21 02:55:35;;;;;;;2.05;1.95;;;18.70;99.90;;;;;;5058617;28;20218;-76
2022/05/21 02:58:02;;;;;;;3.15;2.40;;;18.60;99.90;;;;;;5058567;28;20209;-77
2022/05/21 03:00:31;;;;;;;2.42;2.22;;;18.60;99.90;;;;;;5051511;28;20229;-76
2022/05/21 03:02:59;;;;;;;2.15;2.05;;;18.60;99.90;;;;;;5053851;28;20249;-76
2022/05/21 03:05:29;;;;;;;3.15;2.00;;;18.60;99.90;;;;;;5054727;28;20586;-77
2022/05/21 03:07:56;;;;;;;2.45;2.20;;;18.60;99.90;;;;;;5048512;28;20198;-76
2022/05/21 03:10:25;;;;;;;1.95;1.80;;;18.50;99.90;;;;;;5049424;28;20278;-76
2022/05/21 03:12:54;;;;;;;2.20;2.00;;;18.50;99.90;;;;;;5049657;28;20234;-76
2022/05/21 03:15:24;;;;;;;2.65;2.10;;;18.40;99.90;;;;;;5045632;28;20341;-77
2022/05/21 03:17:51;;;;;;;2.92;2.05;;;18.40;99.90;;;;;;5051568;28;20271;-76
2022/05/21 03:20:20;;;;;;;3.40;2.20;;;18.30;99.90;;;;;;5046460;28;20257;-77
2022/05/21 03:22:49;;;;;;;2.67;2.47;;;18.30;99.90;;;;;;5046649;28;20194;-76
2022/05/21 03:25:17;;;;;;;2.00;1.88;;;18.20;99.90;;;;;;5050835;28;20215;-76
2022/05/21 03:27:44;;;;;;;3.08;2.13;;;18.20;99.90;;;;;;5053407;28;20206;-76
2022/05/21 03:30:14;;;;;;;2.40;2.20;;;18.10;99.90;;;;;;5047718;28;20191;-76
2022/05/21 03:32:42;;;;;;;2.55;1.90;;;18.10;99.90;;;;;;5046370;28;20650;-76
2022/05/21 03:35:10;;;;;;;2.35;2.15;;;18.20;99.90;;;;;;5044258;28;20622;-76
2022/05/21 03:37:37;;;;;;;1.95;1.85;;;18.10;99.90;;;;;;5049160;28;20692;-75
2022/05/21 03:40:09;;;;;;;2.20;2.08;;;18.20;99.90;;;;;;5048308;28;20210;-76
2022/05/21 03:42:37;;;;;;;2.28;1.60;;;18.30;99.90;;;;;;5045058;28;20225;-76
2022/05/21 03:45:06;;;;;;;2.30;2.05;;;18.30;99.90;;;;;;5042147;28;20246;-76
2022/05/21 03:47:33;;;;;;;2.33;2.17;;;18.40;99.90;;;;;;5050355;28;20218;-77
2022/05/21 03:50:01;;;;;;;1.70;1.60;;;18.40;99.90;;;;;;5050433;28;20216;-76
2022/05/21 03:52:28;;;;;;;1.63;1.52;;;18.40;99.90;;;;;;5042867;28;20221;-76
2022/05/21 03:54:55;;;;;;;2.22;2.00;;;18.40;99.90;;;;;;5047657;28;20214;-76
2022/05/21 03:57:23;;;;;;;2.45;1.60;;;18.40;99.90;;;;;;5050593;28;20226;-77
2022/05/21 03:59:50;;;;;;;1.83;1.73;;;18.50;99.90;;;;;;5054761;28;20648;-76
2022/05/21 04:02:17;;;;;;;1.90;1.80;;;18.50;99.90;;;;;;5049641;28;20709;-77
2022/05/21 04:04:44;;;;;;;2.28;2.13;;;18.50;99.90;;;;;;5049190;28;20219;-76
2022/05/21 04:07:12;;;;;;;1.83;1.73;;;18.50;99.90;;;;;;5052213;28;20275;-76
2022/05/21 04:09:39;;;;;;;1.70;1.60;;;18.50;99.90;;;;;;5049732;28;20203;-76
2022/05/21 04:12:07;;;;;;;2.25;1.70;;;18.40;99.90;;;;;;5050447;28;20222;-76
2022/05/21 04:14:35;;;;;;;1.67;1.58;;;18.50;99.90;;;;;;5046379;28;20210;-77
2022/05/21 04:17:05;;;;;;;3.13;1.67;;;18.50;99.90;;;;;;5049573;28;20260;-76
2022/05/21 04:19:32;;;;;;;1.88;1.77;;;18.50;99.90;;;;;;5047380;28;20195;-76
2022/05/21 04:21:59;;;;;;;1.88;1.60;;;18.50;99.90;;;;;;5048167;28;20228;-77
2022/05/21 04:24:26;;;;;;;2.30;2.13;;;18.50;99.90;;;;;;5050219;28;20267;-76
2022/05/21 04:26:54;;;;;;;2.58;1.95;;;18.50;99.90;;;;;;5047728;28;20691;-76
2022/05/21 04:29:21;;;;;;;2.15;1.90;;;18.50;99.90;;;;;;5047273;28;20222;-76
2022/05/21 04:31:49;;;;;;;2.00;1.80;;;18.50;99.90;;;;;;5049291;28;20215;-76
2022/05/21 04:34:16;;;;;;;1.65;1.55;;;18.60;99.90;;;;;;5047510;28;20556;-76
2022/05/21 04:36:43;;;;;;;2.50;1.75;;;18.70;99.90;;;;;;5049514;28;20820;-76
2022/05/21 04:39:11;;;;;;;1.65;1.55;;;18.80;99.90;;;;;;5062971;28;20179;-78
2022/05/21 04:41:38;;;;;;;2.08;1.88;;;18.80;99.90;;;;;;5044769;28;20588;-76
2022/05/21 04:44:07;;;;;;;2.47;1.75;;;18.80;99.90;;;;;;5046215;28;20195;-77
2022/05/21 04:46:35;;;;;;;1.77;1.52;;;18.90;99.90;;;;;;5048872;28;20222;-76
2022/05/21 04:49:03;;;;;;;2.95;1.50;;;18.90;99.90;;;;;;5049554;28;20222;-76
2022/05/21 04:51:31;;;;;;;1.70;1.60;;;19.10;99.90;;;;;;5046826;28;20300;-76
2022/05/21 04:53:58;;;;;;;1.70;1.60;;;19.10;99.90;;;;;;5053170;28;20203;-76
2022/05/21 04:56:25;;;;;;;2.25;1.45;;;19.20;99.90;;;;;;5053489;28;20257;-76
2022/05/21 04:58:52;;;;;;;1.60;1.50;;;19.20;99.90;;;;;;5052053;28;20199;-76
2022/05/21 05:01:19;;;;;;;2.35;1.77;;;19.20;99.90;;;;;;5050195;28;20510;-76
2022/05/21 05:03:46;;;;;;;2.15;1.95;;;19.30;99.90;;;;;;5052070;28;20199;-76
2022/05/21 05:06:15;;;;;;;2.53;1.60;;;19.30;99.90;;;;;;5059819;28;20223;-76
2022/05/21 05:08:42;;;;;;;2.17;1.58;;;19.40;99.90;;;;;;5054481;28;20190;-76
2022/05/21 05:11:09;;;;;;;4.10;1.80;;;19.50;99.90;;;;;;5059696;28;20218;-77
2022/05/21 05:13:36;;;;;;;2.38;2.10;;;19.70;99.90;;;;;;5059078;28;20194;-76
2022/05/21 05:16:04;;;;;;;2.67;2.05;;;19.90;99.90;;;;;;5051283;28;20974;-76
2022/05/21 05:18:31;;;;;;;2.47;2.22;;;19.80;99.90;;;;;;5053356;28;20666;-76
2022/05/21 05:20:59;;;;;;;1.70;1.60;;;19.70;99.90;;;;;;5049620;28;20224;-76
2022/05/21 05:23:28;;;;;;;2.10;1.83;;;19.60;99.90;;;;;;5048901;28;20256;-76
2022/05/21 05:25:55;;;;;;;2.53;1.95;;;19.80;99.90;;;;;;5046677;28;20230;-75
2022/05/21 05:28:24;;;;;;;2.53;1.88;;;19.80;99.90;;;;;;5050135;28;20194;-76
2022/05/21 05:30:52;;;;;;;2.40;1.83;;;19.80;99.90;;;;;;5060594;28;20845;-76
2022/05/21 05:33:21;;;;;;;2.13;1.60;;;19.80;99.90;;;;;;5054957;28;20550;-75
2022/05/21 05:35:50;;;;;;;2.05;1.90;;;19.70;99.90;;;;;;5052813;28;20580;-75
2022/05/21 05:38:17;;;;;;;1.67;1.50;;;19.70;99.90;;;;;;5057004;28;20199;-75
2022/05/21 05:40:50;;;;;;;2.33;2.00;;;19.90;99.90;;;;;;5055050;28;20701;-76
2022/05/21 05:43:19;;;;;;;1.88;1.77;;;19.90;99.90;;;;;;5047473;28;20199;-75
2022/05/21 05:45:46;;;;;;;2.50;2.08;;;19.90;99.90;;;;;;5059534;28;20227;-75
2022/05/21 05:48:13;;;;;;;2.80;1.80;;;19.90;99.90;;;;;;5057213;28;20210;-76
2022/05/21 05:50:40;;;;;;;1.80;1.70;;;19.80;99.90;;;;;;5050936;28;20203;-76
2022/05/21 05:53:08;;;;;;;2.13;1.92;;;19.90;99.90;;;;;;5052478;28;20203;-75
2022/05/21 05:55:37;;;;;;;2.63;2.10;;;20.10;99.90;;;;;;5051765;28;20565;-76
2022/05/21 05:59:48;;;;;;;2.47;2.28;;;20.30;99.90;;;;;;5057705;28;20708;-75
2022/05/21 06:00:52;;;;;;;2.15;2.00;;;20.50;99.90;;;;;;5048112;28;20203;-76
2022/05/21 06:03:20;;;;;;;3.53;2.35;;;20.60;99.90;;;;;;5050444;28;20215;-75
2022/05/21 06:05:49;;;;;;;3.55;2.65;;;20.70;99.90;;;;;;5054679;28;20242;-76
2022/05/21 06:08:16;;;;;;;2.83;2.28;;;20.80;99.90;;;;;;5047279;28;20206;-76
2022/05/21 06:10:45;;;;;;;2.90;2.05;;;20.90;99.90;;;;;;5052428;28;20294;-76
2022/05/21 06:13:14;;;;;;;2.45;2.25;;;21.10;99.90;;;;;;5058832;28;20352;-75
2022/05/21 06:15:41;;;;;;;3.15;2.20;;;21.20;99.90;;;;;;5058602;28;20718;-76
2022/05/21 06:18:10;;;;;;;2.63;2.30;;;21.40;99.90;;;;;;5058538;28;20230;-75
2022/05/21 06:20:38;;;;;;;2.63;2.20;;;21.40;99.90;;;;;;5053923;28;20252;-77
2022/05/21 06:23:05;;;;;;;2.80;2.00;;;21.50;99.90;;;;;;5070028;28;20225;-77
2022/05/21 06:25:33;;;;;;;3.13;2.13;;;21.70;99.90;;;;;;5053133;28;20222;-76
2022/05/21 06:28:01;;;;;;;4.85;2.15;;;22.00;99.90;;;;;;5059291;28;20242;-75
2022/05/21 06:30:31;;;;;;;2.55;1.88;;;22.10;99.90;;;;;;5048090;28;20199;-76
2022/05/21 06:32:59;;;;;;;3.47;2.10;;;22.30;99.90;;;;;;5048189;28;20309;-77
2022/05/21 06:35:27;;;;;;;5.60;2.17;;;22.50;99.90;;;;;;5049697;28;20230;-77
2022/05/21 06:37:55;;;;;;;3.65;2.30;;;22.40;99.90;;;;;;5046831;28;20313;-76
2022/05/21 06:40:22;;;;;;;3.28;2.30;;;22.30;99.90;;;;;;5050681;28;20287;-76
2022/05/21 06:42:49;;;;;;;2.60;2.30;;;22.00;99.90;;;;;;5045409;28;20226;-77
2022/05/21 06:45:16;;;;;;;2.58;2.22;;;22.10;99.90;;;;;;5054290;28;20238;-77
2022/05/21 06:47:45;;;;;;;2.75;2.42;;;22.10;99.90;;;;;;5046362;28;20242;-76
2022/05/21 06:50:13;;;;;;;3.72;2.42;;;22.20;99.90;;;;;;5048072;28;20683;-76
2022/05/21 06:52:40;;;;;;;6.90;2.95;;;22.20;99.90;;;;;;5046632;28;20818;-77
2022/05/21 06:55:09;;;;;;;2.75;2.45;;;22.30;99.90;;;;;;5048140;28;20239;-76
2022/05/21 06:57:36;;;;;;;2.65;2.13;;;22.50;99.90;;;;;;5049898;28;20727;-77
2022/05/21 07:00:05;;;;;;;2.92;2.72;;;22.60;99.90;;;;;;5048835;28;20206;-76
2022/05/21 07:02:32;;;;;;;3.50;2.50;;;22.70;99.90;;;;;;5049618;28;20599;-75
2022/05/21 07:07:45;;;;;;;3.33;2.55;;;22.70;99.90;;;;;;5053968;28;20244;-76
2022/05/21 07:10:19;;;;;;;5.18;2.83;;;22.70;99.90;;;;;;5052188;28;20584;-76
2022/05/21 07:12:46;;;;;;;3.00;2.25;;;22.70;99.90;;;;;;5044204;28;20213;-76
2022/05/21 07:15:14;;;;;;;3.50;2.15;;;22.60;99.90;;;;;;5052607;28;20632;-75
2022/05/21 07:17:42;;;;;;;3.40;2.78;;;22.70;99.90;;;;;;5045576;28;20226;-78
2022/05/21 07:20:14;;;;;;;3.35;2.33;;;23.00;99.90;;;;;;5048195;28;20290;-76
2022/05/21 07:22:42;;;;;;;4.55;2.55;;;23.30;99.90;;;;;;5051062;28;20736;-77
2022/05/21 07:25:11;;;;;;;3.00;2.53;;;23.40;99.90;;;;;;5047666;28;20225;-76
2022/05/21 07:27:38;;;;;;;4.38;2.92;;;23.50;99.90;;;;;;5043493;28;20234;-77
2022/05/21 07:30:06;;;;;;;3.42;2.40;;;23.50;99.90;;;;;;5053262;28;20245;-77
2022/05/21 07:32:33;;;;;;;3.13;2.10;;;23.50;99.90;;;;;;5043557;28;20222;-77
2022/05/21 07:35:02;;;;;;;4.07;2.80;;;23.40;99.90;;;;;;5046791;28;20218;-76
2022/05/21 07:37:30;;;;;;;5.30;2.90;;;23.40;99.90;;;;;;5042851;28;20223;-76
2022/05/21 07:39:57;;;;;;;2.95;2.65;;;23.40;99.90;;;;;;5044795;28;20261;-75
2022/05/21 07:42:24;;;;;;;3.35;2.47;;;23.60;99.90;;;;;;5049240;28;20241;-75
2022/05/21 07:44:51;;;;;;;4.65;2.75;;;23.80;99.90;;;;;;5056538;28;20318;-76
2022/05/21 07:47:22;;;;;;;3.13;2.70;;;24.00;99.90;;;;;;5054423;28;20292;-76
2022/05/21 07:49:51;;;;;;;2.50;2.30;;;24.00;99.90;;;;;;5048618;28;20197;-76
2022/05/21 07:52:18;;;;;;;3.05;2.72;;;24.10;99.90;;;;;;5053350;28;20211;-74
2022/05/21 07:54:47;;;;;;;4.43;2.80;;;24.00;99.90;;;;;;5053005;28;20351;-75
2022/05/21 07:57:15;;;;;;;3.78;2.92;;;24.00;99.90;;;;;;5051623;28;20284;-77
2022/05/21 07:59:42;;;;;;;3.15;2.72;;;24.30;99.90;;;;;;5049492;28;20260;-80
2022/05/21 08:02:12;;;;;;;3.20;2.90;;;24.60;99.90;;;;;;5050792;28;20218;-77
2022/05/21 08:04:40;;;;;;;3.10;2.50;;;24.50;99.90;;;;;;5049933;28;20342;-79
2022/05/21 08:07:07;;;;;;;5.43;2.80;;;24.80;99.90;;;;;;5053951;28;20234;-80
2022/05/21 08:09:34;;;;;;;4.72;2.55;;;25.10;99.90;;;;;;5052894;28;20203;-79
2022/05/21 08:12:02;;;;;;;3.25;2.90;;;25.30;99.90;;;;;;5048553;28;20245;-80
2022/05/21 08:14:29;;;;;;;4.60;2.42;;;25.60;99.90;;;;;;5052398;28;20572;-79
2022/05/21 08:16:57;;;;;;;6.20;2.65;;;25.70;99.90;;;;;;5053609;28;20245;-77
2022/05/21 08:19:23;;;;;;;3.10;2.75;;;25.60;99.90;;;;;;5053054;28;20235;-77
2022/05/21 08:21:51;;;;;;;9.18;3.10;;;25.50;99.90;;;;;;5052878;28;20256;-78
2022/05/21 08:27:05;;;;;;;3.10;2.80;;;25.00;99.90;;;;;;5053363;28;20359;-77
2022/05/21 08:29:34;;;;;;;3.47;2.63;;;24.90;99.90;;;;;;5054210;28;20256;-77
2022/05/21 08:32:02;;;;;;;3.45;2.83;;;25.00;99.90;;;;;;5053985;28;20221;-77
2022/05/21 08:34:29;;;;;;;3.58;2.67;;;25.10;99.90;;;;;;5048359;28;20936;-76
2022/05/21 08:36:57;;;;;;;4.32;3.08;;;25.10;99.90;;;;;;5049297;28;20244;-77
2022/05/21 08:39:24;;;;;;;4.20;2.88;;;24.80;99.90;;;;;;5054216;28;20574;-77
2022/05/21 08:41:54;;;;;;;3.53;2.75;;;24.70;99.90;;;;;;5050467;28;20362;-77
2022/05/21 08:44:35;;;;;;;3.20;2.90;;;24.70;99.90;;;;;;5045007;28;20704;-77
2022/05/21 08:47:07;;;;;;;3.28;2.97;;;24.70;99.90;;;;;;5049985;28;20229;-77
2022/05/21 08:49:39;;;;;;;4.00;2.83;;;24.70;99.90;;;;;;5051018;28;20367;-77
2022/05/21 08:52:15;;;;;;;3.42;2.58;;;25.10;99.90;;;;;;5050304;28;20292;-77
2022/05/21 08:54:45;;;;;;;4.70;2.55;;;24.80;99.90;;;;;;5046611;28;20227;-78
2022/05/21 08:57:17;;;;;;;4.78;2.85;;;24.80;99.90;;;;;;5045501;28;20222;-77
2022/05/21 08:59:52;;;;;;;4.93;2.80;;;24.70;99.90;;;;;;5044089;28;20268;-75
2022/05/21 09:02:25;;;;;;;3.38;2.67;;;24.50;99.90;;;;;;5046705;28;20825;-76
2022/05/21 09:04:52;;;;;;;3.72;2.90;;;24.20;99.90;;;;;;5046364;28;20230;-77
2022/05/21 09:07:22;;;;;;;3.13;2.47;;;24.00;99.90;;;;;;5045716;28;20242;-77
2022/05/21 09:10:13;;;;;;;3.35;2.40;;;23.90;99.90;;;;;;5050354;28;20199;-76
2022/05/21 09:12:45;;;;;;;3.75;2.65;;;23.90;99.90;;;;;;5045841;28;20218;-76
2022/05/21 09:18:09;;;;;;;4.47;2.88;;;23.80;99.90;;;;;;5052589;28;20345;-75
2022/05/21 09:20:44;;;;;;;3.83;2.70;;;23.90;99.90;;;;;;5047290;28;20207;-75
2022/05/21 09:23:11;;;;;;;5.80;2.53;;;24.10;99.90;;;;;;5046928;28;20229;-75
2022/05/21 09:25:38;;;;;;;4.75;2.40;;;24.20;99.90;;;;;;5045423;28;20297;-76
2022/05/21 09:28:07;;;;;;;3.28;2.10;;;24.20;99.90;;;;;;5045914;28;20226;-75
2022/05/21 09:30:40;;;;;;;3.05;2.38;;;24.30;99.90;;;;;;5048576;28;20202;-74
2022/05/21 09:33:23;;;;;;;2.28;2.08;;;24.30;99.90;;;;;;5047750;28;20267;-74
2022/05/21 09:35:53;;;;;;;3.80;2.17;;;24.30;99.90;;;;;;5048236;28;20257;-74
2022/05/21 09:38:23;;;;;;;6.43;2.65;;;24.50;99.90;;;;;;5047627;28;20770;-74
2022/05/21 09:41:03;;;;;;;5.68;2.58;;;25.00;99.90;;;;;;5052681;28;20256;-75
2022/05/21 09:46:19;;;;;;;2.70;2.42;;;25.80;99.90;;;;;;5041106;28;20301;-75
2022/05/21 09:48:47;;;;;;;2.67;2.40;;;26.10;99.90;;;;;;5043537;28;20230;-76
2022/05/21 09:51:24;;;;;;;3.42;2.60;;;26.30;99.90;;;;;;5046878;28;20200;-76
2022/05/21 09:53:51;;;;;;;3.58;2.42;;;26.50;99.90;;;;;;5048272;28;20326;-76
2022/05/21 09:56:21;;;;;;;3.80;2.47;;;26.60;99.90;;;;;;5050550;28;20209;-75
2022/05/21 09:58:49;;;;;;;4.53;2.50;;;26.80;99.90;;;;;;5044945;28;20284;-75
2022/05/21 10:01:36;;;;;;;3.35;2.50;;;27.10;99.90;;;;;;5044020;28;20202;-75
2022/05/21 10:04:12;;;;;;;5.18;3.03;;;27.10;99.90;;;;;;5055862;28;20219;-74
2022/05/21 10:06:43;;;;;;;4.60;2.45;;;27.10;99.90;;;;;;5049964;28;20206;-75
2022/05/21 10:12:05;;;;;;;2.88;2.42;;;27.00;99.90;;;;;;5044093;28;20202;-73
2022/05/21 10:14:35;;;;;;;5.45;2.75;;;27.10;99.90;;;;;;5043371;28;20395;-75
2022/05/21 10:17:07;;;;;;;4.03;2.70;;;27.10;99.90;;;;;;5043393;28;20711;-74
2022/05/21 10:19:41;;;;;;;3.45;2.42;;;27.20;99.90;;;;;;5043021;28;20191;-74
2022/05/21 10:22:19;;;;;;;3.30;2.38;;;27.00;99.90;;;;;;5055465;28;20685;-75
2022/05/21 10:24:54;;;;;;;3.17;2.40;;;27.20;99.90;;;;;;5046512;28;20260;-74
2022/05/21 10:28:03;;;;;;;4.40;2.72;;;27.40;99.90;;;;;;5050091;28;20226;-75
2022/05/21 10:30:45;;;;;;;4.22;2.80;;;27.50;99.90;;;;;;5055116;28;20294;-75
2022/05/21 10:33:31;;;;;;;4.03;2.45;;;27.40;99.90;;;;;;5046768;28;20241;-74
2022/05/21 10:36:13;;;;;;;5.03;2.60;;;27.20;99.90;;;;;;5051548;28;20203;-75
2022/05/21 10:38:56;;;;;;;4.47;2.92;;;27.30;99.90;;;;;;5052226;28;20301;-75
2022/05/21 10:41:47;;;;;;;3.17;2.38;;;27.60;99.90;;;;;;5053128;28;20463;-75
2022/05/21 10:44:29;;;;;;;5.10;2.95;;;27.90;99.90;;;;;;5043045;28;20226;-76
2022/05/21 10:47:03;;;;;;;5.90;2.42;;;28.40;99.90;;;;;;5050623;28;20205;-75
2022/05/21 10:50:04;;;;;;;3.25;2.70;;;28.70;99.90;;;;;;5052926;28;20281;-75
2022/05/21 10:52:44;;;;;;;2.67;2.40;;;28.70;99.90;;;;;;5030991;28;20305;-74
2022/05/21 10:55:18;;;;;;;3.08;2.40;;;28.30;99.90;;;;;;5046804;28;20195;-76
2022/05/21 10:58:09;;;;;;;2.97;2.15;;;28.30;99.90;;;;;;5051057;28;20218;-75
2022/05/21 11:00:46;;;;;;;2.60;2.30;;;28.40;99.90;;;;;;5047410;28;20199;-76
2022/05/21 11:03:37;;;;;;;3.92;2.70;;;28.30;99.90;;;;;;5043190;28;20221;-74
2022/05/21 11:06:31;;;;;;;7.82;2.70;;;28.50;99.90;;;;;;5044891;28;20627;-75
2022/05/21 11:09:11;;;;;;;3.70;2.35;;;28.60;99.90;;;;;;5009626;28;20229;-75
2022/05/21 11:11:52;;;;;;;4.10;2.47;;;28.70;99.90;;;;;;5040353;28;20203;-75
2022/05/21 11:14:23;;;;;;;2.90;2.17;;;28.40;99.90;;;;;;5048051;28;20242;-75
2022/05/21 11:16:56;;;;;;;2.30;2.10;;;28.60;99.90;;;;;;5041652;28;20950;-75
2022/05/21 11:19:30;;;;;;;4.18;2.30;;;28.80;99.90;;;;;;5045672;28;20219;-75
2022/05/21 11:22:06;;;;;;;6.68;2.70;;;28.90;99.90;;;;;;5051233;28;20199;-75
2022/05/21 11:24:37;;;;;;;2.40;2.05;;;28.90;99.90;;;;;;5055848;28;20230;-75
2022/05/21 11:27:11;;;;;;;3.30;2.10;;;28.80;99.90;;;;;;5037010;28;20668;-75
2022/05/21 11:29:44;;;;;;;3.50;2.30;;;28.90;99.90;;;;;;5048966;28;20226;-75
2022/05/21 11:37:57;;;;;;;5.55;2.30;;;29.50;99.90;;;;;;5040812;28;20189;-75
2022/05/21 11:46:52;;;;;;;3.40;2.35;;;29.70;99.90;;;;;;5040992;28;20205;-76
2022/05/21 11:49:36;;;;;;;3.88;2.72;;;29.70;99.90;;;;;;5040302;28;20227;-75
2022/05/21 11:52:36;;;;;;;3.47;1.92;;;29.90;99.90;;;;;;5040077;28;20653;-75
2022/05/21 11:55:15;;;;;;;3.13;2.00;;;29.90;99.90;;;;;;5036873;28;20302;-75
2022/05/21 11:57:45;;;;;;;3.95;2.28;;;30.20;99.90;;;;;;5041551;28;20198;-77
2022/05/21 12:00:46;;;;;;;3.80;1.80;;;30.40;99.90;;;;;;5041327;28;20207;-77
2022/05/21 12:03:19;;;;;;;2.35;2.00;;;30.50;99.90;;;;;;5039430;28;20221;-76
2022/05/21 12:06:23;;;;;;;4.28;2.40;;;30.40;99.90;;;;;;5044686;28;20697;-77
2022/05/21 12:08:51;;;;;;;3.50;1.95;;;30.70;99.90;;;;;;5044173;28;20222;-77
2022/05/21 12:11:42;;;;;;;3.25;2.30;;;30.90;99.90;;;;;;5043677;28;20234;-77
2022/05/21 12:14:19;;;;;;;7.65;2.25;;;30.80;99.90;;;;;;5040131;28;20636;-77
2022/05/21 12:16:53;;;;;;;3.25;2.22;;;30.80;99.90;;;;;;5040377;28;20735;-75
2022/05/21 12:20:09;;;;;;;5.47;2.30;;;31.00;99.90;;;;;;5042448;28;20304;-74
2022/05/21 12:22:54;;;;;;;2.63;1.95;;;31.10;99.90;;;;;;5042027;28;20198;-74
2022/05/21 12:25:58;;;;;;;3.90;1.98;;;31.10;99.90;;;;;;5045795;28;20229;-74
2022/05/21 12:28:47;;;;;;;4.60;2.45;;;31.20;99.90;;;;;;5037972;28;20317;-76
2022/05/21 12:31:22;;;;;;;3.67;2.20;;;31.40;99.90;;;;;;5043782;28;20297;-74
2022/05/21 12:34:31;;;;;;;3.72;2.15;;;31.30;99.90;;;;;;5043446;28;20309;-75
2022/05/21 12:37:11;;;;;;;2.10;1.90;;;31.50;99.90;;;;;;4990731;28;20222;-76
2022/05/21 12:39:46;;;;;;;2.20;2.00;;;31.70;99.90;;;;;;5047162;28;20284;-75
2022/05/21 12:42:19;;;;;;;2.83;1.85;;;31.80;99.90;;;;;;5038567;28;20214;-75
2022/05/21 12:44:48;;;;;;;2.83;1.92;;;31.70;99.90;;;;;;5041081;28;20214;-76
2022/05/21 12:47:27;;;;;;;2.47;1.92;;;31.40;99.90;;;;;;5038415;28;20250;-76
2022/05/21 12:49:54;;;;;;;3.50;2.25;;;31.10;99.90;;;;;;5036549;28;20285;-75
2022/05/21 12:52:24;;;;;;;2.50;1.83;;;31.00;99.90;;;;;;5037779;28;20223;-75
2022/05/21 12:55:12;;;;;;;2.35;1.83;;;31.10;99.90;;;;;;5038716;28;20759;-75
2022/05/21 12:57:40;;;;;;;2.80;1.90;;;31.00;99.90;;;;;;5035667;28;20222;-75
2022/05/21 13:00:09;;;;;;;2.63;1.90;;;30.90;99.90;;;;;;5036709;28;20204;-75
2022/05/21 13:02:42;;;;;;;2.90;1.80;;;30.90;99.90;;;;;;5036323;28;20299;-75
2022/05/21 13:05:12;;;;;;;2.40;1.83;;;31.00;99.90;;;;;;5038669;28;20203;-74
2022/05/21 13:07:43;;;;;;;4.95;1.77;;;31.40;99.90;;;;;;5040375;28;20230;-75
2022/05/21 13:10:18;;;;;;;1.95;1.60;;;31.70;99.90;;;;;;5036844;28;20711;-74
2022/05/21 13:12:48;;;;;;;3.40;1.83;;;32.00;99.90;;;;;;5040590;28;20309;-76
2022/05/21 13:15:22;;;;;;;5.38;2.10;;;32.20;99.90;;;;;;5034623;28;20206;-74
2022/05/21 13:17:58;;;;;;;3.35;1.67;;;32.30;99.90;;;;;;5041492;28;20320;-76
2022/05/21 13:20:32;;;;;;;4.97;2.05;;;32.40;99.90;;;;;;5044444;28;20194;-75
2022/05/21 13:23:13;;;;;;;2.17;1.98;;;32.40;99.90;;;;;;5040441;28;20704;-76
2022/05/21 13:25:40;;;;;;;2.50;1.75;;;32.40;99.90;;;;;;5043078;28;20359;-76
2022/05/21 13:28:16;;;;;;;2.30;1.80;;;32.50;99.90;;;;;;5044572;28;20281;-75
2022/05/21 13:30:47;;;;;;;3.30;1.70;;;32.60;99.90;;;;;;5041369;28;20286;-75
2022/05/21 13:33:29;;;;;;;3.33;1.92;;;32.60;99.90;;;;;;5047238;28;20254;-77
2022/05/21 13:36:00;;;;;;;4.50;1.80;;;32.80;99.90;;;;;;5042019;28;20191;-76
2022/05/21 13:38:31;;;;;;;3.13;1.77;;;32.70;99.90;;;;;;5042839;28;20199;-79
2022/05/21 13:41:02;;;;;;;2.95;1.90;;;32.60;99.90;;;;;;5041975;28;20313;-77
2022/05/21 13:43:35;;;;;;;2.80;1.40;;;32.50;99.90;;;;;;5041183;28;20227;-78